KLM0956 EGNT-EHAM
Flight info
| Callsign | KLM0956 |
|---|---|
| Flight time | 1h 2m |
| Altitude | 35000 |
| Route | GIRLI P18 GASKO Y250 KEFTE UY250 MAMUL L603 LAMSO |
| Aircraft | A21N/M-SDE2E3FGHIRWXY/LB1 |
Departure
| Time | 2026-05-04 09:42 |
|---|---|
| Airport | Newcastle International Airport (EGNT) |
Arrival
| Time | 2026-05-04 10:44 |
|---|---|
| Airport | Amsterdam Airport Schiphol (EHAM) |
| Time | Latitude | Longitude | Altitude | Speed | Heading |
|---|---|---|---|---|---|
| 2026-05-04 09:23 | 55.03959 | -1.70522 | 260 ft | 0 kts | 274° |
| 2026-05-04 09:34 | 55.03984 | -1.70364 | 259 ft | 1 kts | 206° |
| 2026-05-04 09:37 | 55.03982 | -1.70366 | 259 ft | 2 kts | 205° |
| 2026-05-04 09:38 | 55.03925 | -1.70383 | 259 ft | 11 kts | 185° |
| 2026-05-04 09:38 | 55.03837 | -1.70395 | 260 ft | 14 kts | 186° |
| 2026-05-04 09:38 | 55.03736 | -1.70430 | 261 ft | 16 kts | 184° |
| 2026-05-04 09:38 | 55.03622 | -1.70467 | 262 ft | 17 kts | 217° |
| 2026-05-04 09:39 | 55.03563 | -1.70630 | 264 ft | 16 kts | 204° |
| 2026-05-04 09:39 | 55.03471 | -1.70650 | 265 ft | 0 kts | 182° |
| 2026-05-04 09:39 | 55.03450 | -1.70651 | 265 ft | 5 kts | 180° |
| 2026-05-04 09:40 | 55.03400 | -1.70644 | 265 ft | 8 kts | 159° |
| 2026-05-04 09:40 | 55.03378 | -1.70562 | 265 ft | 10 kts | 79° |
| 2026-05-04 09:40 | 55.03391 | -1.70495 | 264 ft | 0 kts | 69° |
| 2026-05-04 09:42 | 55.06073 | -1.60345 | 2598 ft | 202 kts | 66° |
| 2026-05-04 09:43 | 55.06620 | -1.57899 | 2785 ft | 230 kts | 81° |
| 2026-05-04 09:43 | 55.06430 | -1.55089 | 3159 ft | 243 kts | 120° |
| 2026-05-04 09:43 | 55.05237 | -1.52973 | 3653 ft | 254 kts | 156° |
| 2026-05-04 09:43 | 55.03496 | -1.52405 | 4268 ft | 259 kts | 184° |
| 2026-05-04 09:44 | 55.01679 | -1.52631 | 5017 ft | 264 kts | 187° |
| 2026-05-04 09:44 | 54.99830 | -1.52881 | 5779 ft | 268 kts | 185° |
| 2026-05-04 09:44 | 54.97968 | -1.53240 | 6547 ft | 271 kts | 195° |
| 2026-05-04 09:46 | 54.86526 | -1.64561 | 10772 ft | 322 kts | 212° |
| 2026-05-04 09:46 | 54.84541 | -1.66606 | 11049 ft | 341 kts | 212° |
| 2026-05-04 09:46 | 54.82449 | -1.68755 | 11414 ft | 357 kts | 212° |
| 2026-05-04 09:47 | 54.80283 | -1.70973 | 11983 ft | 364 kts | 212° |
| 2026-05-04 09:47 | 54.78118 | -1.73185 | 12696 ft | 367 kts | 212° |
| 2026-05-04 09:49 | 54.60826 | -1.83939 | 17074 ft | 397 kts | 189° |
| 2026-05-04 09:49 | 54.58075 | -1.84647 | 17650 ft | 401 kts | 189° |
| 2026-05-04 09:49 | 54.55309 | -1.85404 | 18224 ft | 405 kts | 190° |
| 2026-05-04 09:51 | 54.38258 | -1.90672 | 21025 ft | 425 kts | 191° |
| 2026-05-04 09:51 | 54.35331 | -1.91593 | 21472 ft | 429 kts | 190° |
| 2026-05-04 09:51 | 54.32388 | -1.92515 | 21918 ft | 432 kts | 190° |
| 2026-05-04 09:51 | 54.29416 | -1.93442 | 22365 ft | 436 kts | 190° |
| 2026-05-04 09:52 | 54.26404 | -1.94149 | 22788 ft | 439 kts | 183° |
| 2026-05-04 09:52 | 54.23344 | -1.94007 | 23212 ft | 441 kts | 172° |
| 2026-05-04 09:52 | 54.20362 | -1.92781 | 23657 ft | 441 kts | 158° |
| 2026-05-04 09:52 | 54.17568 | -1.90602 | 24022 ft | 442 kts | 151° |
| 2026-05-04 09:53 | 54.14915 | -1.87912 | 24361 ft | 443 kts | 143° |
| 2026-05-04 09:53 | 54.12564 | -1.84520 | 24689 ft | 443 kts | 131° |
| 2026-05-04 09:53 | 54.10697 | -1.80370 | 25041 ft | 442 kts | 120° |
| 2026-05-04 09:53 | 54.09191 | -1.75806 | 25396 ft | 442 kts | 115° |
| 2026-05-04 09:54 | 54.07870 | -1.71069 | 25729 ft | 443 kts | 111° |
| 2026-05-04 09:54 | 54.06646 | -1.66256 | 26064 ft | 444 kts | 110° |
| 2026-05-04 09:54 | 54.05450 | -1.61399 | 26388 ft | 446 kts | 110° |
| 2026-05-04 09:54 | 54.04248 | -1.56521 | 26719 ft | 448 kts | 110° |
| 2026-05-04 09:55 | 54.03023 | -1.51631 | 26985 ft | 450 kts | 111° |
| 2026-05-04 09:55 | 54.01777 | -1.46750 | 27426 ft | 449 kts | 111° |
| 2026-05-04 09:55 | 54.00522 | -1.41901 | 27895 ft | 447 kts | 111° |
| 2026-05-04 09:55 | 53.99263 | -1.37087 | 28319 ft | 445 kts | 111° |
| 2026-05-04 09:56 | 53.98005 | -1.32299 | 28782 ft | 443 kts | 111° |
| 2026-05-04 09:56 | 53.96751 | -1.27548 | 29267 ft | 440 kts | 111° |
| 2026-05-04 09:56 | 53.95501 | -1.22819 | 29675 ft | 438 kts | 111° |
| 2026-05-04 09:56 | 53.94253 | -1.18102 | 30041 ft | 437 kts | 111° |
| 2026-05-04 09:57 | 53.93008 | -1.13404 | 30352 ft | 436 kts | 111° |
| 2026-05-04 09:57 | 53.91779 | -1.08773 | 30642 ft | 436 kts | 111° |
| 2026-05-04 09:57 | 53.90534 | -1.04087 | 30927 ft | 435 kts | 111° |
| 2026-05-04 09:57 | 53.89286 | -0.99401 | 31142 ft | 436 kts | 111° |
| 2026-05-04 09:58 | 53.88037 | -0.94718 | 31378 ft | 436 kts | 111° |
| 2026-05-04 09:58 | 53.86784 | -0.90037 | 31640 ft | 435 kts | 111° |
| 2026-05-04 09:58 | 53.85536 | -0.85379 | 31900 ft | 435 kts | 112° |
| 2026-05-04 10:00 | 53.76759 | -0.52906 | 33470 ft | 432 kts | 112° |
| 2026-05-04 10:00 | 53.75501 | -0.48288 | 33665 ft | 432 kts | 112° |
| 2026-05-04 10:02 | 53.66582 | -0.15811 | 34562 ft | 437 kts | 114° |
| 2026-05-04 10:04 | 53.57500 | 0.16795 | 35070 ft | 443 kts | 115° |
| 2026-05-04 10:04 | 53.54871 | 0.26146 | 35072 ft | 442 kts | 115° |
| 2026-05-04 10:05 | 53.52238 | 0.35479 | 35070 ft | 442 kts | 115° |
| 2026-05-04 10:05 | 53.49614 | 0.44738 | 35067 ft | 442 kts | 115° |
| 2026-05-04 10:06 | 53.46964 | 0.54057 | 35060 ft | 442 kts | 116° |
| 2026-05-04 10:06 | 53.44295 | 0.63402 | 35061 ft | 446 kts | 116° |
| 2026-05-04 10:08 | 53.34845 | 0.96196 | 35061 ft | 446 kts | 116° |
| 2026-05-04 10:08 | 53.32130 | 1.05535 | 35053 ft | 447 kts | 116° |
| 2026-05-04 10:09 | 53.29413 | 1.14843 | 35055 ft | 450 kts | 117° |
| 2026-05-04 10:09 | 53.26658 | 1.24243 | 35050 ft | 450 kts | 117° |
| 2026-05-04 10:10 | 53.23898 | 1.33626 | 35044 ft | 450 kts | 117° |
| 2026-05-04 10:10 | 53.21129 | 1.43003 | 35049 ft | 451 kts | 117° |
| 2026-05-04 10:11 | 53.18352 | 1.52368 | 35044 ft | 450 kts | 117° |
| 2026-05-04 10:11 | 53.15566 | 1.61726 | 35045 ft | 450 kts | 118° |
| 2026-05-04 10:12 | 53.12770 | 1.71078 | 34799 ft | 450 kts | 118° |
| 2026-05-04 10:12 | 53.11373 | 1.75739 | 34555 ft | 450 kts | 118° |
| 2026-05-04 10:12 | 53.09973 | 1.80400 | 34314 ft | 450 kts | 118° |
| 2026-05-04 10:13 | 53.08570 | 1.85062 | 34098 ft | 451 kts | 118° |
| 2026-05-04 10:13 | 53.07164 | 1.89724 | 33825 ft | 451 kts | 118° |
| 2026-05-04 10:13 | 53.05756 | 1.94385 | 33543 ft | 451 kts | 118° |
| 2026-05-04 10:13 | 53.04345 | 1.99049 | 33270 ft | 452 kts | 118° |
| 2026-05-04 10:14 | 53.02928 | 2.03720 | 32983 ft | 453 kts | 119° |
| 2026-05-04 10:14 | 53.01507 | 2.08397 | 32712 ft | 455 kts | 119° |
| 2026-05-04 10:16 | 52.91359 | 2.41538 | 29145 ft | 466 kts | 122° |
| 2026-05-04 10:16 | 52.89879 | 2.46321 | 28342 ft | 465 kts | 122° |
| 2026-05-04 10:16 | 52.88400 | 2.51098 | 27524 ft | 466 kts | 122° |
| 2026-05-04 10:16 | 52.86929 | 2.55848 | 26955 ft | 460 kts | 122° |
| 2026-05-04 10:17 | 52.85479 | 2.60526 | 26393 ft | 455 kts | 122° |
| 2026-05-04 10:17 | 52.84038 | 2.65163 | 25786 ft | 451 kts | 121° |
| 2026-05-04 10:19 | 52.74214 | 2.96502 | 21570 ft | 425 kts | 120° |
| 2026-05-04 10:19 | 52.72821 | 3.00777 | 21033 ft | 419 kts | 122° |
| 2026-05-04 10:19 | 52.71389 | 3.04911 | 20579 ft | 412 kts | 123° |
| 2026-05-04 10:19 | 52.69957 | 3.08989 | 20002 ft | 409 kts | 123° |
| 2026-05-04 10:20 | 52.68535 | 3.13031 | 19427 ft | 407 kts | 122° |
| 2026-05-04 10:20 | 52.67118 | 3.17053 | 18860 ft | 405 kts | 122° |
| 2026-05-04 10:20 | 52.65709 | 3.21052 | 18280 ft | 403 kts | 122° |
| 2026-05-04 10:20 | 52.64308 | 3.25026 | 17659 ft | 400 kts | 122° |
| 2026-05-04 10:21 | 52.62917 | 3.28966 | 17091 ft | 396 kts | 122° |
| 2026-05-04 10:21 | 52.61539 | 3.32865 | 16534 ft | 392 kts | 122° |
| 2026-05-04 10:21 | 52.60173 | 3.36725 | 15972 ft | 389 kts | 122° |
| 2026-05-04 10:21 | 52.58900 | 3.40634 | 15412 ft | 388 kts | 114° |
| 2026-05-04 10:22 | 52.57174 | 3.48995 | 14427 ft | 386 kts | 112° |
| 2026-05-04 10:22 | 52.56233 | 3.53123 | 13942 ft | 385 kts | 112° |
| 2026-05-04 10:22 | 52.55286 | 3.57228 | 13440 ft | 383 kts | 112° |
| 2026-05-04 10:23 | 52.54343 | 3.61307 | 12894 ft | 380 kts | 112° |
| 2026-05-04 10:23 | 52.53410 | 3.65346 | 12375 ft | 376 kts | 112° |
| 2026-05-04 10:25 | 52.50223 | 3.93159 | 8853 ft | 340 kts | 92° |
| 2026-05-04 10:25 | 52.50174 | 3.96996 | 8331 ft | 330 kts | 92° |
| 2026-05-04 10:25 | 52.50120 | 4.00681 | 7818 ft | 314 kts | 92° |
| 2026-05-04 10:25 | 52.50059 | 4.04192 | 7325 ft | 301 kts | 92° |
| 2026-05-04 10:26 | 52.49997 | 4.07563 | 6832 ft | 290 kts | 92° |
| 2026-05-04 10:26 | 52.49934 | 4.10830 | 6312 ft | 283 kts | 92° |
| 2026-05-04 10:26 | 52.49870 | 4.14040 | 5815 ft | 280 kts | 92° |
| 2026-05-04 10:26 | 52.49808 | 4.17220 | 5475 ft | 278 kts | 92° |
| 2026-05-04 10:27 | 52.49767 | 4.19316 | 5256 ft | 277 kts | 92° |
| 2026-05-04 10:27 | 52.49707 | 4.22475 | 4929 ft | 276 kts | 92° |
| 2026-05-04 10:27 | 52.49649 | 4.25619 | 4594 ft | 274 kts | 92° |
| 2026-05-04 10:27 | 52.49590 | 4.28736 | 4262 ft | 273 kts | 92° |
| 2026-05-04 10:28 | 52.49504 | 4.31839 | 3930 ft | 271 kts | 95° |
| 2026-05-04 10:28 | 52.49293 | 4.34899 | 3609 ft | 267 kts | 98° |
| 2026-05-04 10:28 | 52.49052 | 4.37893 | 3290 ft | 261 kts | 98° |
| 2026-05-04 10:28 | 52.48812 | 4.40818 | 2951 ft | 256 kts | 98° |
| 2026-05-04 10:29 | 52.48574 | 4.43682 | 2619 ft | 251 kts | 98° |
| 2026-05-04 10:29 | 52.48343 | 4.46491 | 2291 ft | 247 kts | 98° |
| 2026-05-04 10:29 | 52.48121 | 4.49245 | 2028 ft | 238 kts | 98° |
| 2026-05-04 10:29 | 52.47910 | 4.51878 | 1989 ft | 229 kts | 98° |
| 2026-05-04 10:30 | 52.47701 | 4.54476 | 2000 ft | 231 kts | 98° |
| 2026-05-04 10:30 | 52.47490 | 4.57095 | 1998 ft | 232 kts | 98° |
| 2026-05-04 10:30 | 52.47286 | 4.59649 | 1988 ft | 231 kts | 98° |
| 2026-05-04 10:30 | 52.47078 | 4.62256 | 1992 ft | 232 kts | 98° |
| 2026-05-04 10:31 | 52.46867 | 4.64880 | 1991 ft | 232 kts | 98° |
| 2026-05-04 10:31 | 52.46655 | 4.67499 | 1990 ft | 232 kts | 98° |
| 2026-05-04 10:32 | 52.44843 | 4.83002 | 1993 ft | 231 kts | 103° |
| 2026-05-04 10:33 | 52.44521 | 4.85589 | 1994 ft | 231 kts | 102° |
| 2026-05-04 10:33 | 52.44197 | 4.88175 | 1995 ft | 231 kts | 102° |
| 2026-05-04 10:33 | 52.43870 | 4.90753 | 1995 ft | 231 kts | 103° |
| 2026-05-04 10:33 | 52.43544 | 4.93335 | 1990 ft | 231 kts | 102° |
| 2026-05-04 10:34 | 52.43223 | 4.95916 | 1999 ft | 231 kts | 102° |
| 2026-05-04 10:34 | 52.42896 | 4.98500 | 1988 ft | 232 kts | 103° |
| 2026-05-04 10:34 | 52.42562 | 5.01090 | 1991 ft | 233 kts | 102° |
| 2026-05-04 10:34 | 52.42224 | 5.03684 | 1986 ft | 233 kts | 102° |
| 2026-05-04 10:35 | 52.41886 | 5.06286 | 2002 ft | 233 kts | 102° |
| 2026-05-04 10:35 | 52.41546 | 5.08890 | 1994 ft | 233 kts | 102° |
| 2026-05-04 10:35 | 52.41214 | 5.11485 | 1994 ft | 233 kts | 102° |
| 2026-05-04 10:35 | 52.40791 | 5.14037 | 1974 ft | 231 kts | 119° |
| 2026-05-04 10:36 | 52.39741 | 5.15943 | 1982 ft | 226 kts | 151° |
| 2026-05-04 10:36 | 52.38280 | 5.16906 | 1992 ft | 228 kts | 158° |
| 2026-05-04 10:36 | 52.37008 | 5.18432 | 1991 ft | 229 kts | 127° |
| 2026-05-04 10:36 | 52.36431 | 5.20825 | 1986 ft | 230 kts | 94° |
| 2026-05-04 10:37 | 52.36728 | 5.23373 | 1989 ft | 232 kts | 61° |
| 2026-05-04 10:37 | 52.37806 | 5.25282 | 1990 ft | 231 kts | 29° |
| 2026-05-04 10:37 | 52.39335 | 5.25967 | 1984 ft | 230 kts | 356° |
| 2026-05-04 10:37 | 52.40843 | 5.25220 | 1987 ft | 228 kts | 323° |
| 2026-05-04 10:39 | 52.37646 | 5.13950 | 1985 ft | 228 kts | 212° |
| 2026-05-04 10:39 | 52.36307 | 5.12555 | 1985 ft | 228 kts | 212° |
| 2026-05-04 10:39 | 52.34967 | 5.11161 | 1992 ft | 228 kts | 212° |
| 2026-05-04 10:40 | 52.33692 | 5.09644 | 1974 ft | 226 kts | 231° |
| 2026-05-04 10:40 | 52.32954 | 5.07409 | 1992 ft | 226 kts | 251° |
| 2026-05-04 10:40 | 52.32676 | 5.04880 | 1988 ft | 227 kts | 266° |
| 2026-05-04 10:40 | 52.32621 | 5.02290 | 1989 ft | 228 kts | 267° |
| 2026-05-04 10:41 | 52.32545 | 4.99702 | 1987 ft | 227 kts | 266° |
| 2026-05-04 10:41 | 52.32455 | 4.97251 | 2031 ft | 204 kts | 265° |
| 2026-05-04 10:41 | 52.32369 | 4.95045 | 1917 ft | 186 kts | 265° |
| 2026-05-04 10:41 | 52.32296 | 4.93015 | 1666 ft | 173 kts | 266° |
| 2026-05-04 10:42 | 52.32232 | 4.91129 | 1399 ft | 159 kts | 266° |
| 2026-05-04 10:42 | 52.32174 | 4.89422 | 1184 ft | 145 kts | 266° |
| 2026-05-04 10:42 | 52.32119 | 4.87806 | 997 ft | 141 kts | 265° |
| 2026-05-04 10:42 | 52.32064 | 4.86204 | 809 ft | 141 kts | 265° |
| 2026-05-04 10:43 | 52.32009 | 4.84611 | 625 ft | 140 kts | 266° |
| 2026-05-04 10:44 | 52.31592 | 4.76635 | 2 ft | 18 kts | 236° |
| 2026-05-04 10:45 | 52.31502 | 4.76494 | 2 ft | 18 kts | 191° |
| 2026-05-04 10:45 | 52.31442 | 4.76618 | 2 ft | 18 kts | 66° |
| 2026-05-04 10:45 | 52.31475 | 4.76828 | 2 ft | 21 kts | 87° |
| 2026-05-04 10:45 | 52.31478 | 4.77082 | 2 ft | 23 kts | 101° |
| 2026-05-04 10:46 | 52.31361 | 4.77165 | 2 ft | 22 kts | 206° |
| 2026-05-04 10:46 | 52.31224 | 4.77019 | 2 ft | 25 kts | 213° |
| 2026-05-04 10:46 | 52.31076 | 4.76863 | 2 ft | 26 kts | 213° |
| 2026-05-04 10:46 | 52.31018 | 4.76808 | 2 ft | 5 kts | 190° |
| 2026-05-04 10:47 | 52.30970 | 4.76800 | 2 ft | 9 kts | 184° |
| 2026-05-04 10:47 | 52.30918 | 4.76795 | 2 ft | 0 kts | 184° |
| 2026-05-04 10:47 | 52.30913 | 4.76795 | 2 ft | 0 kts | 183° |